Terminal Aerodrome Forecast
Issued by NWS Des Moines, IA

Home | Current Version | Previous Version | Text Only | Print | Product List | Glossary On
Versions: 1 2 3 4 5 6 7 8 9 10 11 12 13 14 15 16 17 18 19 20 21 22 23
000
FTUS43 KDMX 030520
TAFALO
TAF
KALO 030520Z 0306/0406 VRB03KT P6SM SKC
     FM031400 27008KT P6SM SKC
     FM031800 27015G23KT P6SM SCT150
     FM040200 32011KT P6SM VCSH BKN110=

USA.gov is the U.S. government's official web portal to all federal, state and local government web resources and services.